sensor_id;sensor_type;location;lat;lon;timestamp;pressure;altitude;pressure_sealevel;temperature;humidity
48402;BME280;65988;52.422;16.746;2023-05-07T00:00:05;100563.41;;;22.43;39.94
48402;BME280;65988;52.422;16.746;2023-05-07T00:02:38;100764.38;;;23.44;39.58
48402;BME280;65988;52.422;16.746;2023-05-07T00:05:07;100643.72;;;22.25;40.39
48402;BME280;65988;52.422;16.746;2023-05-07T00:07:41;100493.94;;;22.20;39.66
48402;BME280;65988;52.422;16.746;2023-05-07T00:10:10;100639.75;;;22.80;39.47
48402;BME280;65988;52.422;16.746;2023-05-07T00:12:35;100426.22;;;22.69;39.38
48402;BME280;65988;52.422;16.746;2023-05-07T00:15:07;100552.34;;;22.98;38.95
48402;BME280;65988;52.422;16.746;2023-05-07T00:17:35;100449.97;;;21.35;40.31
48402;BME280;65988;52.422;16.746;2023-05-07T00:20:02;100405.09;;;20.99;40.49
48402;BME280;65988;52.422;16.746;2023-05-07T00:22:33;100528.13;;;20.67;41.45
48402;BME280;65988;52.422;16.746;2023-05-07T00:25:06;100384.09;;;19.80;42.31
48402;BME280;65988;52.422;16.746;2023-05-07T00:27:51;100462.31;;;20.96;40.82
48402;BME280;65988;52.422;16.746;2023-05-07T00:30:29;100349.88;;;20.35;41.55
48402;BME280;65988;52.422;16.746;2023-05-07T00:33:00;100566.50;;;21.23;41.06
48402;BME280;65988;52.422;16.746;2023-05-07T00:35:33;100718.66;;;22.70;40.29
48402;BME280;65988;52.422;16.746;2023-05-07T00:38:05;100815.72;;;23.27;39.84
48402;BME280;65988;52.422;16.746;2023-05-07T00:40:40;100623.31;;;22.15;40.40
48402;BME280;65988;52.422;16.746;2023-05-07T00:43:40;100535.22;;;23.03;38.34
48402;BME280;65988;52.422;16.746;2023-05-07T00:46:09;100640.94;;;23.00;38.89
48402;BME280;65988;52.422;16.746;2023-05-07T00:48:41;100486.44;;;22.27;39.39
48402;BME280;65988;52.422;16.746;2023-05-07T00:51:15;100839.34;;;23.77;39.14
48402;BME280;65988;52.422;16.746;2023-05-07T00:54:02;100682.22;;;24.18;38.12
48402;BME280;65988;52.422;16.746;2023-05-07T00:56:56;100624.72;;;22.45;40.18
48402;BME280;65988;52.422;16.746;2023-05-07T00:59:33;100663.50;;;22.43;40.34
48402;BME280;65988;52.422;16.746;2023-05-07T01:02:06;100558.88;;;22.08;39.76
48402;BME280;65988;52.422;16.746;2023-05-07T01:04:40;100701.25;;;23.76;38.73
48402;BME280;65988;52.422;16.746;2023-05-07T01:07:05;100583.25;;;23.20;38.43
48402;BME280;65988;52.422;16.746;2023-05-07T01:09:38;100634.31;;;24.22;37.74
48402;BME280;65988;52.422;16.746;2023-05-07T01:12:07;100535.94;;;22.21;39.10
48402;BME280;65988;52.422;16.746;2023-05-07T01:14:33;100732.66;;;24.49;37.37
48402;BME280;65988;52.422;16.746;2023-05-07T01:17:02;100499.91;;;23.63;37.37
48402;BME280;65988;52.422;16.746;2023-05-07T01:19:31;100690.72;;;25.32;36.55
48402;BME280;65988;52.422;16.746;2023-05-07T01:22:03;100461.50;;;23.92;37.01
48402;BME280;65988;52.422;16.746;2023-05-07T01:24:34;100643.47;;;23.49;38.26
48402;BME280;65988;52.422;16.746;2023-05-07T01:27:00;100524.38;;;23.99;37.15
48402;BME280;65988;52.422;16.746;2023-05-07T01:29:27;100535.91;;;23.52;37.78
48402;BME280;65988;52.422;16.746;2023-05-07T01:32:10;100721.53;;;24.89;36.88
48402;BME280;65988;52.422;16.746;2023-05-07T01:34:39;100642.75;;;25.98;35.29
48402;BME280;65988;52.422;16.746;2023-05-07T01:37:18;100521.41;;;24.24;36.93
48402;BME280;65988;52.422;16.746;2023-05-07T01:39:48;100441.59;;;23.66;36.68
48402;BME280;65988;52.422;16.746;2023-05-07T01:42:24;100649.38;;;24.66;36.80
48402;BME280;65988;52.422;16.746;2023-05-07T01:44:53;100281.59;;;23.21;37.03
48402;BME280;65988;52.422;16.746;2023-05-07T01:47:27;100619.53;;;25.07;36.21
48402;BME280;65988;52.422;16.746;2023-05-07T01:50:00;100579.78;;;23.31;37.81
48402;BME280;65988;52.422;16.746;2023-05-07T01:52:29;100561.50;;;22.45;38.76
48402;BME280;65988;52.422;16.746;2023-05-07T01:54:58;100163.13;;;22.19;37.72
48402;BME280;65988;52.422;16.746;2023-05-07T01:57:28;100670.78;;;24.51;37.22
48402;BME280;65988;52.422;16.746;2023-05-07T02:00:09;100541.53;;;24.04;37.25
48402;BME280;65988;52.422;16.746;2023-05-07T02:02:52;100513.31;;;23.03;37.71
48402;BME280;65988;52.422;16.746;2023-05-07T02:05:28;100621.13;;;22.95;38.68
48402;BME280;65988;52.422;16.746;2023-05-07T02:07:59;100640.81;;;24.07;37.29
48402;BME280;65988;52.422;16.746;2023-05-07T02:10:35;100375.94;;;23.06;37.18
48402;BME280;65988;52.422;16.746;2023-05-07T02:13:09;100381.22;;;23.06;37.23
48402;BME280;65988;52.422;16.746;2023-05-07T02:15:40;100386.44;;;22.14;38.68
48402;BME280;65988;52.422;16.746;2023-05-07T02:18:24;100523.75;;;22.69;38.36
48402;BME280;65988;52.422;16.746;2023-05-07T02:20:54;100307.31;;;21.31;39.68
48402;BME280;65988;52.422;16.746;2023-05-07T02:23:22;100629.63;;;22.98;38.71
48402;BME280;65988;52.422;16.746;2023-05-07T02:26:15;100616.03;;;23.51;37.79
48402;BME280;65988;52.422;16.746;2023-05-07T02:28:46;100620.09;;;23.09;38.77
48402;BME280;65988;52.422;16.746;2023-05-07T02:31:12;100461.56;;;23.13;37.86
48402;BME280;65988;52.422;16.746;2023-05-07T02:33:43;100424.06;;;22.51;38.78
48402;BME280;65988;52.422;16.746;2023-05-07T02:36:13;100700.47;;;24.09;38.12
48402;BME280;65988;52.422;16.746;2023-05-07T02:39:04;100532.44;;;22.94;39.00
48402;BME280;65988;52.422;16.746;2023-05-07T02:41:37;100421.88;;;21.73;39.74
48402;BME280;65988;52.422;16.746;2023-05-07T02:44:07;100640.28;;;22.11;40.44
48402;BME280;65988;52.422;16.746;2023-05-07T02:46:38;100398.88;;;21.13;40.60
48402;BME280;65988;52.422;16.746;2023-05-07T02:49:09;100377.91;;;22.10;38.92
48402;BME280;65988;52.422;16.746;2023-05-07T02:51:44;100655.22;;;21.06;41.49
48402;BME280;65988;52.422;16.746;2023-05-07T02:54:15;100722.78;;;22.62;39.67
48402;BME280;65988;52.422;16.746;2023-05-07T02:56:45;100628.75;;;22.25;39.46
48402;BME280;65988;52.422;16.746;2023-05-07T02:59:19;100539.06;;;21.52;40.49
48402;BME280;65988;52.422;16.746;2023-05-07T03:02:07;100610.94;;;23.01;38.57
48402;BME280;65988;52.422;16.746;2023-05-07T03:04:39;100581.00;;;22.43;38.33
48402;BME280;65988;52.422;16.746;2023-05-07T03:07:20;100321.16;;;20.72;40.08
48402;BME280;65988;52.422;16.746;2023-05-07T03:09:48;100725.66;;;22.59;39.80
48402;BME280;65988;52.422;16.746;2023-05-07T03:12:32;100636.31;;;23.15;38.52
48402;BME280;65988;52.422;16.746;2023-05-07T03:15:03;100745.50;;;24.19;37.92
48402;BME280;65988;52.422;16.746;2023-05-07T03:17:33;100565.09;;;22.44;39.06
48402;BME280;65988;52.422;16.746;2023-05-07T03:19:59;100408.75;;;21.23;39.35
48402;BME280;65988;52.422;16.746;2023-05-07T03:22:25;100608.41;;;22.40;39.22
48402;BME280;65988;52.422;16.746;2023-05-07T03:25:01;100328.59;;;22.70;37.90
48402;BME280;65988;52.422;16.746;2023-05-07T03:27:29;100790.59;;;24.05;38.23
48402;BME280;65988;52.422;16.746;2023-05-07T03:29:55;100347.56;;;21.08;39.86
48402;BME280;65988;52.422;16.746;2023-05-07T03:32:23;100437.94;;;21.57;39.75
48402;BME280;65988;52.422;16.746;2023-05-07T03:34:48;100228.75;;;21.02;39.41
48402;BME280;65988;52.422;16.746;2023-05-07T03:37:16;100407.59;;;21.64;39.85
48402;BME280;65988;52.422;16.746;2023-05-07T03:39:52;100638.94;;;22.55;39.25
48402;BME280;65988;52.422;16.746;2023-05-07T03:42:17;100461.63;;;21.94;39.79
48402;BME280;65988;52.422;16.746;2023-05-07T03:44:57;100527.38;;;21.57;40.18
48402;BME280;65988;52.422;16.746;2023-05-07T03:47:26;100599.59;;;21.12;41.10
48402;BME280;65988;52.422;16.746;2023-05-07T03:50:01;100586.06;;;21.06;40.89
48402;BME280;65988;52.422;16.746;2023-05-07T03:52:30;100645.63;;;21.32;40.98
48402;BME280;65988;52.422;16.746;2023-05-07T03:54:57;100432.28;;;20.60;41.34
48402;BME280;65988;52.422;16.746;2023-05-07T03:57:33;100675.63;;;22.46;39.63
48402;BME280;65988;52.422;16.746;2023-05-07T04:00:03;100641.13;;;21.99;40.02
48402;BME280;65988;52.422;16.746;2023-05-07T04:02:35;100710.72;;;22.46;39.39
48402;BME280;65988;52.422;16.746;2023-05-07T04:05:03;100584.31;;;21.70;39.51
48402;BME280;65988;52.422;16.746;2023-05-07T04:07:34;100644.16;;;21.01;41.50
48402;BME280;65988;52.422;16.746;2023-05-07T04:10:07;100485.91;;;20.83;40.35
48402;BME280;65988;52.422;16.746;2023-05-07T04:12:47;100736.53;;;22.41;39.89
48402;BME280;65988;52.422;16.746;2023-05-07T04:15:28;100384.53;;;21.30;39.91
48402;BME280;65988;52.422;16.746;2023-05-07T04:18:05;100401.72;;;21.10;40.29
48402;BME280;65988;52.422;16.746;2023-05-07T04:20:34;100638.00;;;21.68;40.13
48402;BME280;65988;52.422;16.746;2023-05-07T04:23:03;100640.63;;;21.68;39.96
48402;BME280;65988;52.422;16.746;2023-05-07T04:25:36;100650.09;;;21.83;39.93
48402;BME280;65988;52.422;16.746;2023-05-07T04:28:16;100795.47;;;23.51;38.58
48402;BME280;65988;52.422;16.746;2023-05-07T04:30:47;100370.28;;;21.83;38.30
48402;BME280;65988;52.422;16.746;2023-05-07T04:33:19;100511.75;;;22.16;39.27
48402;BME280;65988;52.422;16.746;2023-05-07T04:36:01;100689.63;;;23.32;38.38
48402;BME280;65988;52.422;16.746;2023-05-07T04:38:48;100681.19;;;22.54;38.64
48402;BME280;65988;52.422;16.746;2023-05-07T04:41:47;100657.09;;;22.21;39.22
48402;BME280;65988;52.422;16.746;2023-05-07T04:44:16;100813.03;;;22.52;39.81
48402;BME280;65988;52.422;16.746;2023-05-07T04:47:07;100788.34;;;23.65;37.86
48402;BME280;65988;52.422;16.746;2023-05-07T04:49:39;100695.72;;;22.60;38.60
48402;BME280;65988;52.422;16.746;2023-05-07T04:52:13;100652.66;;;22.72;38.43
48402;BME280;65988;52.422;16.746;2023-05-07T04:54:49;100857.84;;;23.52;38.74
48402;BME280;65988;52.422;16.746;2023-05-07T04:57:14;100532.22;;;22.97;38.22
48402;BME280;65988;52.422;16.746;2023-05-07T04:59:50;100631.53;;;21.46;40.35
48402;BME280;65988;52.422;16.746;2023-05-07T05:02:27;100779.53;;;22.92;38.97
48402;BME280;65988;52.422;16.746;2023-05-07T05:05:03;100804.66;;;21.81;40.01
48402;BME280;65988;52.422;16.746;2023-05-07T05:07:31;100528.78;;;22.24;38.66
48402;BME280;65988;52.422;16.746;2023-05-07T05:09:56;100333.19;;;20.36;39.98
48402;BME280;65988;52.422;16.746;2023-05-07T05:12:22;100367.88;;;20.80;39.62
48402;BME280;65988;52.422;16.746;2023-05-07T05:14:50;100799.19;;;21.84;40.64
48402;BME280;65988;52.422;16.746;2023-05-07T05:17:19;100655.69;;;21.13;40.65
48402;BME280;65988;52.422;16.746;2023-05-07T05:22:30;100694.09;;;22.94;38.47
48402;BME280;65988;52.422;16.746;2023-05-07T05:25:02;100796.25;;;22.66;39.56
48402;BME280;65988;52.422;16.746;2023-05-07T05:27:36;100631.25;;;21.77;39.50
48402;BME280;65988;52.422;16.746;2023-05-07T05:30:17;100753.38;;;22.64;38.94
48402;BME280;65988;52.422;16.746;2023-05-07T05:32:55;100579.13;;;21.30;39.48
48402;BME280;65988;52.422;16.746;2023-05-07T05:35:21;100338.66;;;20.59;39.98
48402;BME280;65988;52.422;16.746;2023-05-07T05:41:07;100621.84;;;21.34;39.52
48402;BME280;65988;52.422;16.746;2023-05-07T05:43:55;100925.34;;;23.68;38.69
48402;BME280;65988;52.422;16.746;2023-05-07T05:46:39;100768.16;;;23.99;37.39
48402;BME280;65988;52.422;16.746;2023-05-07T05:49:04;100463.63;;;22.74;37.57
48402;BME280;65988;52.422;16.746;2023-05-07T05:51:32;100361.81;;;20.79;39.57
48402;BME280;65988;52.422;16.746;2023-05-07T05:54:06;100692.91;;;22.50;38.39
48402;BME280;65988;52.422;16.746;2023-05-07T05:56:55;100845.50;;;23.77;37.58
48402;BME280;65988;52.422;16.746;2023-05-07T05:59:26;100772.56;;;23.52;37.45
48402;BME280;65988;52.422;16.746;2023-05-07T06:01:54;100779.34;;;22.82;38.30
48402;BME280;65988;52.422;16.746;2023-05-07T06:04:42;100658.09;;;21.82;38.87
48402;BME280;65988;52.422;16.746;2023-05-07T06:07:21;100669.31;;;22.22;38.42
48402;BME280;65988;52.422;16.746;2023-05-07T06:09:47;100487.88;;;23.02;37.42
48402;BME280;65988;52.422;16.746;2023-05-07T07:01:47;100769.53;;;24.62;35.60
48402;BME280;65988;52.422;16.746;2023-05-07T07:04:21;100709.84;;;24.02;35.75
48402;BME280;65988;52.422;16.746;2023-05-07T07:07:05;100687.50;;;24.29;35.40
48402;BME280;65988;52.422;16.746;2023-05-07T07:09:50;100623.13;;;23.85;35.73
48402;BME280;65988;52.422;16.746;2023-05-07T07:12:33;100705.91;;;24.86;34.81
48402;BME280;65988;52.422;16.746;2023-05-07T07:15:39;100688.03;;;24.78;35.25
48402;BME280;65988;52.422;16.746;2023-05-07T07:18:14;100384.69;;;21.66;36.26
48402;BME280;65988;52.422;16.746;2023-05-07T07:20:41;100831.06;;;24.86;35.38
48402;BME280;65988;52.422;16.746;2023-05-07T07:23:38;100619.28;;;23.55;35.70
48402;BME280;65988;52.422;16.746;2023-05-07T07:26:19;100591.81;;;23.57;35.44
48402;BME280;65988;52.422;16.746;2023-05-07T07:28:48;100365.63;;;22.80;35.23
48402;BME280;65988;52.422;16.746;2023-05-07T07:31:25;100801.13;;;25.41;34.17
48402;BME280;65988;52.422;16.746;2023-05-07T07:37:31;100616.53;;;24.13;34.84
48402;BME280;65988;52.422;16.746;2023-05-07T07:40:11;100670.31;;;23.31;35.70
48402;BME280;65988;52.422;16.746;2023-05-07T07:43:35;100732.16;;;23.63;35.86
48402;BME280;65988;52.422;16.746;2023-05-07T07:46:32;100617.13;;;23.83;35.07
48402;BME280;65988;52.422;16.746;2023-05-07T07:48:58;100471.00;;;23.04;35.73
48402;BME280;65988;52.422;16.746;2023-05-07T07:51:55;100613.13;;;23.43;35.64
48402;BME280;65988;52.422;16.746;2023-05-07T07:54:42;100427.72;;;23.07;35.19
48402;BME280;65988;52.422;16.746;2023-05-07T07:57:30;100739.00;;;24.12;35.29
48402;BME280;65988;52.422;16.746;2023-05-07T07:59:59;100898.38;;;24.93;35.25
48402;BME280;65988;52.422;16.746;2023-05-07T08:02:28;100485.13;;;22.92;35.60
48402;BME280;65988;52.422;16.746;2023-05-07T08:07:38;100701.22;;;25.22;34.17
48402;BME280;65988;52.422;16.746;2023-05-07T08:10:12;100641.28;;;24.79;33.84
48402;BME280;65988;52.422;16.746;2023-05-07T08:12:52;100751.47;;;24.89;34.79
48402;BME280;65988;52.422;16.746;2023-05-07T08:19:09;100611.91;;;24.49;34.10
48402;BME280;65988;52.422;16.746;2023-05-07T08:21:44;100853.75;;;24.77;35.52
48402;BME280;65988;52.422;16.746;2023-05-07T08:24:53;100668.50;;;26.17;32.23
48402;BME280;65988;52.422;16.746;2023-05-07T08:27:46;100791.22;;;26.39;33.51
48402;BME280;65988;52.422;16.746;2023-05-07T08:30:45;100681.44;;;25.05;33.68
48402;BME280;65988;52.422;16.746;2023-05-07T08:33:38;100750.75;;;24.76;34.59
48402;BME280;65988;52.422;16.746;2023-05-07T08:36:29;100682.88;;;23.63;35.30
48402;BME280;65988;52.422;16.746;2023-05-07T08:39:28;100739.44;;;24.97;34.62
48402;BME280;65988;52.422;16.746;2023-05-07T08:42:01;100913.31;;;25.61;34.59
48402;BME280;65988;52.422;16.746;2023-05-07T08:44:41;100666.19;;;24.65;34.15
48402;BME280;65988;52.422;16.746;2023-05-07T08:47:16;100581.72;;;24.19;34.08
48402;BME280;65988;52.422;16.746;2023-05-07T08:49:57;100607.13;;;23.05;35.69
48402;BME280;65988;52.422;16.746;2023-05-07T08:52:22;100509.75;;;23.61;34.97
48402;BME280;65988;52.422;16.746;2023-05-07T08:54:48;100640.50;;;23.42;36.64
48402;BME280;65988;52.422;16.746;2023-05-07T08:57:27;100818.38;;;24.11;36.08
48402;BME280;65988;52.422;16.746;2023-05-07T09:00:07;100846.13;;;25.30;34.57
48402;BME280;65988;52.422;16.746;2023-05-07T09:02:36;100842.53;;;25.19;34.96
48402;BME280;65988;52.422;16.746;2023-05-07T09:05:07;100702.38;;;24.07;35.51
48402;BME280;65988;52.422;16.746;2023-05-07T09:07:43;100698.97;;;24.73;34.74
48402;BME280;65988;52.422;16.746;2023-05-07T09:10:47;100854.28;;;25.49;34.61
48402;BME280;65988;52.422;16.746;2023-05-07T09:13:21;100647.66;;;23.98;35.74
48402;BME280;65988;52.422;16.746;2023-05-07T09:19:25;100875.66;;;25.57;34.50
48402;BME280;65988;52.422;16.746;2023-05-07T09:32:15;100698.84;;;25.19;34.02
48402;BME280;65988;52.422;16.746;2023-05-07T09:35:14;100749.03;;;25.62;33.71
48402;BME280;65988;52.422;16.746;2023-05-07T09:38:13;100705.22;;;25.16;34.04
48402;BME280;65988;52.422;16.746;2023-05-07T09:47:58;100670.06;;;25.68;33.62
48402;BME280;65988;52.422;16.746;2023-05-07T09:50:49;100947.38;;;26.09;34.27
48402;BME280;65988;52.422;16.746;2023-05-07T09:53:39;100797.00;;;25.48;34.38
48402;BME280;65988;52.422;16.746;2023-05-07T09:56:16;100779.19;;;25.71;33.96
48402;BME280;65988;52.422;16.746;2023-05-07T09:58:53;100869.03;;;24.74;35.31
48402;BME280;65988;52.422;16.746;2023-05-07T10:01:36;100713.47;;;25.55;33.32
48402;BME280;65988;52.422;16.746;2023-05-07T10:04:05;100762.56;;;26.02;32.95
48402;BME280;65988;52.422;16.746;2023-05-07T10:06:41;100892.72;;;25.76;34.29
48402;BME280;65988;52.422;16.746;2023-05-07T10:09:16;100702.13;;;25.65;33.14
48402;BME280;65988;52.422;16.746;2023-05-07T10:12:00;100918.09;;;27.05;33.51
48402;BME280;65988;52.422;16.746;2023-05-07T10:17:18;100826.34;;;26.41;33.33
48402;BME280;65988;52.422;16.746;2023-05-07T10:20:27;100801.38;;;25.91;33.43
48402;BME280;65988;52.422;16.746;2023-05-07T10:25:33;100882.41;;;25.83;34.66
48402;BME280;65988;52.422;16.746;2023-05-07T10:28:27;100757.03;;;25.93;33.52
48402;BME280;65988;52.422;16.746;2023-05-07T10:31:36;100599.09;;;25.61;32.82
48402;BME280;65988;52.422;16.746;2023-05-07T10:37:51;100928.44;;;27.49;32.53
48402;BME280;65988;52.422;16.746;2023-05-07T10:40:23;100641.03;;;25.56;33.02
48402;BME280;65988;52.422;16.746;2023-05-07T10:43:04;100746.72;;;25.16;34.45
48402;BME280;65988;52.422;16.746;2023-05-07T10:45:30;100647.63;;;24.21;34.46
48402;BME280;65988;52.422;16.746;2023-05-07T10:51:29;100964.59;;;28.00;32.22
48402;BME280;65988;52.422;16.746;2023-05-07T10:58:22;100768.66;;;25.60;33.93
48402;BME280;65988;52.422;16.746;2023-05-07T11:04:33;100687.84;;;25.87;33.03
48402;BME280;65988;52.422;16.746;2023-05-07T11:07:44;100994.19;;;27.86;32.41
48402;BME280;65988;52.422;16.746;2023-05-07T11:10:09;100762.44;;;26.34;32.69
48402;BME280;65988;52.422;16.746;2023-05-07T11:16:11;100804.31;;;27.31;32.10
48402;BME280;65988;52.422;16.746;2023-05-07T11:24:37;100402.94;;;23.76;33.89
48402;BME280;65988;52.422;16.746;2023-05-07T11:27:28;100823.00;;;26.08;33.08
48402;BME280;65988;52.422;16.746;2023-05-07T11:30:17;100689.50;;;25.78;32.59
48402;BME280;65988;52.422;16.746;2023-05-07T11:32:48;100572.44;;;24.36;33.92
48402;BME280;65988;52.422;16.746;2023-05-07T11:35:22;100677.59;;;25.30;32.79
48402;BME280;65988;52.422;16.746;2023-05-07T11:37:59;100811.75;;;25.18;34.48
48402;BME280;65988;52.422;16.746;2023-05-07T11:43:37;101001.22;;;27.15;33.27
48402;BME280;65988;52.422;16.746;2023-05-07T11:46:24;100822.38;;;26.25;33.18
48402;BME280;65988;52.422;16.746;2023-05-07T11:48:53;100761.03;;;26.71;32.04
48402;BME280;65988;52.422;16.746;2023-05-07T11:51:26;100431.44;;;24.37;33.08
48402;BME280;65988;52.422;16.746;2023-05-07T11:54:03;100744.59;;;25.84;33.18
48402;BME280;65988;52.422;16.746;2023-05-07T11:56:48;100813.41;;;27.48;31.16
48402;BME280;65988;52.422;16.746;2023-05-07T12:03:04;100651.75;;;26.07;31.85
48402;BME280;65988;52.422;16.746;2023-05-07T12:05:42;100941.28;;;27.03;33.06
48402;BME280;65988;52.422;16.746;2023-05-07T12:08:31;100919.22;;;27.53;32.11
48402;BME280;65988;52.422;16.746;2023-05-07T12:11:16;100827.13;;;26.32;32.99
48402;BME280;65988;52.422;16.746;2023-05-07T12:13:45;100796.78;;;25.93;32.93
48402;BME280;65988;52.422;16.746;2023-05-07T12:16:12;100445.09;;;24.10;32.97
48402;BME280;65988;52.422;16.746;2023-05-07T12:19:14;100735.28;;;26.42;31.88
48402;BME280;65988;52.422;16.746;2023-05-07T12:21:46;100698.84;;;26.03;32.65
48402;BME280;65988;52.422;16.746;2023-05-07T12:24:42;100821.72;;;26.33;33.10
48402;BME280;65988;52.422;16.746;2023-05-07T12:27:11;100728.75;;;25.52;33.04
48402;BME280;65988;52.422;16.746;2023-05-07T12:29:43;100898.72;;;26.53;33.21
48402;BME280;65988;52.422;16.746;2023-05-07T12:32:13;100887.94;;;27.66;31.54
48402;BME280;65988;52.422;16.746;2023-05-07T12:34:59;100766.50;;;27.96;30.71
48402;BME280;65988;52.422;16.746;2023-05-07T12:43:47;101002.03;;;29.61;30.54
48402;BME280;65988;52.422;16.746;2023-05-07T12:49:48;100603.31;;;27.04;31.24
48402;BME280;65988;52.422;16.746;2023-05-07T12:52:39;100557.88;;;25.59;31.83
48402;BME280;65988;52.422;16.746;2023-05-07T12:55:17;100785.03;;;25.65;32.79
48402;BME280;65988;52.422;16.746;2023-05-07T13:01:19;100714.53;;;26.67;31.71
48402;BME280;65988;52.422;16.746;2023-05-07T13:04:27;101004.88;;;29.12;30.29
48402;BME280;65988;52.422;16.746;2023-05-07T13:10:07;101002.69;;;29.35;30.91
48402;BME280;65988;52.422;16.746;2023-05-07T13:12:38;100431.25;;;25.93;30.86
48402;BME280;65988;52.422;16.746;2023-05-07T13:15:06;100654.56;;;27.24;30.89
48402;BME280;65988;52.422;16.746;2023-05-07T13:17:40;100910.59;;;28.00;31.66
48402;BME280;65988;52.422;16.746;2023-05-07T13:23:22;100793.72;;;27.61;31.81
48402;BME280;65988;52.422;16.746;2023-05-07T13:26:11;100594.19;;;27.74;30.13
48402;BME280;65988;52.422;16.746;2023-05-07T13:28:42;100664.25;;;26.45;31.67
48402;BME280;65988;52.422;16.746;2023-05-07T13:31:12;100629.34;;;26.21;32.34
48402;BME280;65988;52.422;16.746;2023-05-07T13:34:04;100964.81;;;28.56;31.49
48402;BME280;65988;52.422;16.746;2023-05-07T13:36:56;100797.19;;;27.61;31.61
48402;BME280;65988;52.422;16.746;2023-05-07T13:39:33;100814.53;;;26.76;32.44
48402;BME280;65988;52.422;16.746;2023-05-07T13:44:39;100764.06;;;27.56;30.97
48402;BME280;65988;52.422;16.746;2023-05-07T13:47:33;100774.97;;;27.23;31.47
48402;BME280;65988;52.422;16.746;2023-05-07T13:50:34;100535.50;;;26.33;31.18
48402;BME280;65988;52.422;16.746;2023-05-07T13:53:23;100701.31;;;27.55;30.49
48402;BME280;65988;52.422;16.746;2023-05-07T14:02:02;100678.59;;;27.13;30.99
48402;BME280;65988;52.422;16.746;2023-05-07T14:54:24;100525.34;;;27.15;30.27
48402;BME280;65988;52.422;16.746;2023-05-07T15:06:40;100773.69;;;29.35;28.80
48402;BME280;65988;52.422;16.746;2023-05-07T15:12:35;100542.34;;;27.32;29.10
48402;BME280;65988;52.422;16.746;2023-05-07T15:17:41;100441.59;;;26.06;29.46
48402;BME280;65988;52.422;16.746;2023-05-07T15:20:22;100675.44;;;28.14;29.07
48402;BME280;65988;52.422;16.746;2023-05-07T15:22:55;100430.19;;;25.45;30.62
48402;BME280;65988;52.422;16.746;2023-05-07T15:25:50;100698.81;;;27.14;30.08
48402;BME280;65988;52.422;16.746;2023-05-07T15:28:34;100576.09;;;26.63;30.25
48402;BME280;65988;52.422;16.746;2023-05-07T15:31:02;100620.34;;;26.12;30.96
48402;BME280;65988;52.422;16.746;2023-05-07T15:33:33;100539.50;;;26.47;30.15
48402;BME280;65988;52.422;16.746;2023-05-07T15:36:08;100641.16;;;26.77;30.16
48402;BME280;65988;52.422;16.746;2023-05-07T15:38:41;100599.28;;;26.71;30.11
48402;BME280;65988;52.422;16.746;2023-05-07T15:41:15;100272.25;;;24.86;31.06
48402;BME280;65988;52.422;16.746;2023-05-07T15:43:49;100657.34;;;27.13;29.94
48402;BME280;65988;52.422;16.746;2023-05-07T15:46:22;100642.00;;;26.97;30.61
48402;BME280;65988;52.422;16.746;2023-05-07T15:49:29;100472.69;;;26.63;29.49
48402;BME280;65988;52.422;16.746;2023-05-07T15:51:55;100291.16;;;25.90;29.31
48402;BME280;65988;52.422;16.746;2023-05-07T15:54:38;100884.28;;;29.01;29.53
48402;BME280;65988;52.422;16.746;2023-05-07T15:57:39;100595.66;;;28.60;28.26
48402;BME280;65988;52.422;16.746;2023-05-07T16:00:32;100802.66;;;29.20;28.75
48402;BME280;65988;52.422;16.746;2023-05-07T16:03:21;100464.78;;;27.48;28.37
48402;BME280;65988;52.422;16.746;2023-05-07T16:06:09;100352.72;;;24.62;31.95
48402;BME280;65988;52.422;16.746;2023-05-07T16:08:43;100669.34;;;25.96;31.40
48402;BME280;65988;52.422;16.746;2023-05-07T16:11:15;100568.41;;;24.86;32.11
48402;BME280;65988;52.422;16.746;2023-05-07T16:13:50;100655.44;;;26.35;31.30
48402;BME280;65988;52.422;16.746;2023-05-07T16:16:15;100360.34;;;24.55;31.62
48402;BME280;65988;52.422;16.746;2023-05-07T16:18:46;100500.34;;;24.46;32.27
48402;BME280;65988;52.422;16.746;2023-05-07T16:21:40;100721.31;;;26.50;31.21
48402;BME280;65988;52.422;16.746;2023-05-07T16:24:08;100420.81;;;24.70;30.97
48402;BME280;65988;52.422;16.746;2023-05-07T16:26:42;100498.47;;;26.12;30.63
48402;BME280;65988;52.422;16.746;2023-05-07T16:29:10;100570.38;;;25.98;30.71
48402;BME280;65988;52.422;16.746;2023-05-07T16:31:40;100418.28;;;24.47;31.76
48402;BME280;65988;52.422;16.746;2023-05-07T16:34:18;100499.59;;;25.28;31.48
48402;BME280;65988;52.422;16.746;2023-05-07T16:36:47;100548.16;;;25.38;31.02
48402;BME280;65988;52.422;16.746;2023-05-07T16:39:12;100404.19;;;24.89;31.33
48402;BME280;65988;52.422;16.746;2023-05-07T16:41:41;100546.78;;;25.44;31.32
48402;BME280;65988;52.422;16.746;2023-05-07T16:44:32;100842.69;;;27.08;30.96
48402;BME280;65988;52.422;16.746;2023-05-07T16:46:58;100280.06;;;24.25;31.65
48402;BME280;65988;52.422;16.746;2023-05-07T16:49:30;100300.75;;;23.99;31.94
48402;BME280;65988;52.422;16.746;2023-05-07T16:54:54;100516.56;;;25.87;30.48
48402;BME280;65988;52.422;16.746;2023-05-07T17:03:05;100551.31;;;25.32;31.36
48402;BME280;65988;52.422;16.746;2023-05-07T17:05:33;100566.06;;;25.56;31.21
48402;BME280;65988;52.422;16.746;2023-05-07T17:13:56;100436.41;;;25.04;31.03
48402;BME280;65988;52.422;16.746;2023-05-07T17:16:25;100589.00;;;25.24;31.82
48402;BME280;65988;52.422;16.746;2023-05-07T17:22:28;100735.13;;;27.04;30.66